Avalon School, Santa Catalina Island Weather observations

Data are for 10 minute period ending at time listed.
 Day   Time   Solar   Ave.   Ave.  Ave.  Vector    Max.   Stn.    Total
  of    of     Rad.   Air    Rel.  Wind   Wind     Wind   Baro.  Precip.
Year   Day            Temp.  Hum.  Speed  Dir.     Gust   Pres.         
2017   (PST)   W/m2    F      %     mph   deg.      mph    mb.     in.  
------------------------------------------------------------------------
  18   23:40    0.0    57   84.0     4     97.0    10.2    999.0   2.00  
  18   23:50    0.0    57   84.2     4     98.7     9.0    999.0   2.00  
  19    0:00    0.0    57   83.7     5    119.7    17.3    999.0   2.00  
  19    0:10    0.0    57   82.9     5     98.7    13.1    999.0   2.00  
  19    0:20    0.0    57   82.0     6     84.4    13.7    999.0   2.00  
  19    0:30    0.0    57   82.2     3    140.7     7.2    999.0   2.00  
  19    0:40    0.0    57   83.1     4    294.4    10.2    999.0   2.00  
  19    0:50    0.0    57   83.4     3    349.0     7.2    999.0   2.00  
  19    1:00    0.0    57   84.1     5    266.5    11.3    999.0   2.00  
  19    1:10    0.0    57   83.8     4    295.0    10.8    999.0   2.00  
  19    1:20    0.0    57   83.0     4    121.9    10.8    999.0   2.00  
  19    1:30    0.0    57   83.1     3     16.9     9.0    999.0   2.00  
  19    1:40    0.0    57   85.3     4    170.1     9.6    999.0   2.00  
  19    1:50    0.0    57   85.2     3     82.8     5.4    999.0   2.00  
  19    2:00    0.0    56   85.8     3    136.0     6.6    999.0   2.00  
  19    2:10    0.0    56   86.5     2    102.3     6.6    999.0   2.00  
  19    2:20    0.0    57   86.9     3     98.7     4.8    999.0   2.00  
  19    2:30    0.0    57   87.7     3     81.7     6.6    999.0   2.00  
  19    2:40    0.0    57   88.5     3     81.7     7.8    999.0   2.00  
  19    2:50    0.0    57   89.4     2    337.9     6.6    999.0   2.00  
  19    3:00    0.0    57   90.1     3     95.7     6.6    999.0   2.00  
  19    3:10    0.0    57   90.8     4     65.9     8.4    999.0   2.00  
  19    3:20    0.0    57   91.3     5     74.9    10.8    999.0   2.00  
  19    3:30    0.0    57   91.8     5     63.7    10.8    999.0   2.00  
  19    3:40    0.0    57   91.8     6    261.8    11.9    999.0   2.00  
  19    3:50    0.0    57   91.8     5    354.5    11.9    999.0   2.00  
  19    4:00    0.0    57   91.9     6     31.5    12.5    999.0   1.99  
  19    4:10    0.0    57   92.1     6     57.9    12.5    999.0   2.00  
  19    4:20    0.0    57   92.2     6      6.8    22.1    999.0   2.00  
  19    4:30    0.0    57   92.4     5    238.7    13.1    999.0   2.00  
  19    4:40    0.0    57   92.4     6    174.7    14.3    999.0   2.00  
  19    4:50    0.0    57   92.6     4    245.1     9.0    999.0   2.00  
  19    5:00    0.0    56   92.2     5    263.7    11.3    999.0   2.00  
  19    5:10    0.0    55   92.3     3    158.8     9.6    999.0   1.99  
  19    5:20    0.0    56   92.6     3    268.5     9.0    999.0   2.00  
  19    5:30    0.0    56   92.8     4    238.9    10.8    999.0   1.97  
  19    5:40    0.0    56   93.1     4    241.4     9.6    999.0   1.99  
  19    5:50    0.0    57   93.2     3    210.4     9.0    999.0   1.82  
  19    6:00    0.0    57   93.4     4    210.1    10.2    999.0   2.00  
  19    6:10    0.0    57   93.5     3    210.9    11.3    999.0   2.00  
  19    6:20    0.0    57   93.7     4    260.7     7.8    999.0   2.00  
  19    6:30    0.0    57   93.8     5    259.3    13.1    999.0   1.96  
  19    6:40    0.0    58   93.5     4    243.0    11.9    999.0   2.00  
  19    6:50    0.0    58   93.2     2    271.7     6.6    999.0   2.00  
  19    7:00    1.0    58   92.6     4    242.2    11.9    999.0   2.00  
  19    7:10    3.0    58   90.8     4    243.9     9.0    999.0   2.00  
  19    7:20    8.0    58   89.1     6    247.5    13.1    999.0   1.98  
  19    7:30   12.0    58   86.4     5    253.3    14.9    999.0   2.00  
  19    7:40   23.0    58   85.5     4    256.2    12.5    999.0   1.99  
  19    7:50   46.0    58   85.8     4    226.4     9.6    999.0   1.98  
  19    8:00   35.0    58   85.6     4    253.9    10.2    999.0   1.98  
  19    8:10   92.0    58   85.0     4    247.9    10.8    999.0   2.00  
  19    8:20  188.0    59   83.6     5    250.8    14.3    999.0   1.68  
  19    8:30  250.0    60   81.4     5    256.1    11.9    999.0   1.54  
  19    8:40  272.0    60   80.0     4    266.7     8.4    999.0   1.73  
  19    8:50  302.0    60   79.3     4    249.8     9.0    999.0   1.97  
  19    9:00  323.0    61   78.4     4    266.5    10.2    999.0   1.92  
  19    9:10  336.0    62   77.8     3    204.0     9.0    999.0   2.00  
  19    9:20  353.0    62   77.2     4    228.6     8.4    999.0   1.96  
  19    9:30  372.0    61   76.6     5    260.3    15.5    999.0   1.95  
  19    9:40  304.0    61   76.3     5    277.6    10.8    999.0   2.00  
  19    9:50  291.0    60   77.7     5    275.9    11.3    999.0   1.71  
  19   10:00  379.0    61   76.8     6    206.9    13.1    999.0   1.87  
  19   10:10  416.0    61   75.7     5    239.4    13.1    999.0   2.00  
  19   10:20  471.0    61   73.9     5    277.6    16.7    999.0   2.00  
  19   10:30  485.0    61   73.9     6    245.0    12.5    999.0   2.00  
  19   10:40  518.0    62   73.4     4    218.1     9.0    999.0   1.97  
  19   10:50  529.0    62   72.4     4    269.0     9.6    999.0   1.36  
  19   11:00  541.0    62   72.4     5    293.7     8.4    999.0   1.94  
  19   11:10  514.0    62   73.6     4    283.7    10.2    999.0   1.39  
  19   11:20  568.0    62   73.4     5    282.7    12.5    999.0   1.75  
  19   11:30  548.0    62   73.8     6    275.7    10.2    999.0   1.96  
  19   11:40  395.0    61   74.2     7    270.7    16.7    999.0   1.99  
  19   11:50  307.0    60   74.8     6    286.2    14.3    999.0   2.00  
  19   12:00  434.0    60   75.2     6    255.4    13.1    999.0   1.10  
  19   12:10  561.0    61   73.5     5    280.3    10.8    999.0   1.96  
  19   12:20  479.0    61   73.3     6    282.0    14.3    999.0   1.86  
  19   12:30  289.0    61   72.5     4    300.8    11.9    999.0   2.00  
  19   12:40  450.0    61   72.0     6    288.3    17.9    999.0   2.00  
  19   12:50  409.0    62   71.4     5    268.5    11.3    999.0   1.91  
  19   13:00  446.0    62   70.1     5    287.8    10.8    999.0   2.00  
  19   13:10  304.0    61   68.4     5    295.9    15.5    999.0   2.00  
  19   13:20  230.0    61   68.4     4    271.7     7.2    999.0   1.99  
  19   13:30  231.0    61   69.9     2    342.2     6.6    999.0   1.99  
  19   13:40  388.0    61   71.0     3    276.8     9.6    999.0   2.00  
  19   13:50  408.0    61   71.2     4    277.5     7.8    999.0   2.00  
  19   14:00  390.0    61   70.0     3    252.1    10.8    999.0   1.96  
  19   14:10  139.0    60   72.2     4    259.9     9.0    999.0   2.00  
  19   14:20  177.0    60   74.2     5    272.0    11.3    999.0   1.85  
  19   14:30   95.0    60   75.8     4    289.7     8.4    999.0   2.00  
  19   14:40  111.0    60   77.7     3    261.8     6.6    999.0   1.94  
  19   14:50   98.0    59   78.8     3    252.8     6.6    999.0   1.95  
  19   15:00   80.0    59   78.2     3    257.3     7.2    999.0   2.00  
  19   15:10   98.0    59   78.8     3    282.5     4.8    999.0   2.00  
  19   15:20   87.0    59   77.2     4    293.2     8.4    999.0   2.00  
  19   15:30   76.0    59   78.8     3    222.0     7.2    999.0   2.00  
  19   15:40   55.0    59   79.6     2    242.6     6.0    999.0   2.00  
  19   15:50   49.0    59   80.4     2    242.4     7.2    999.0   2.00  
  19   16:00   43.0    58   81.1     3    239.0    11.3    999.0   1.86  
  19   16:10   33.0    58   81.4     4    273.8    11.9    999.0   2.00  
  19   16:20   30.0    58   82.5     3    265.1     7.8    999.0   1.99  
  19   16:30   28.0    58   82.2     3    264.8     7.2    999.0   2.00  
  19   16:40   21.0    58   81.5     4    267.3     7.8    999.0   2.00  
  19   16:50   16.0    58   81.0     5    267.7    12.5    999.0   2.00  
  19   17:00   17.0    58   80.7     6    267.0     9.6    999.0   2.00  
  19   17:10   12.0    58   80.3     6    267.0    10.8    999.0   2.00  
  19   17:20    5.0    58   79.8     6    264.4    10.2    999.0   2.00  
  19   17:30    1.0    58   80.0     6    271.2    13.1    999.0   2.00  
  19   17:40    0.0    58   80.5     6    263.6    11.3    999.0   2.00  
  19   17:50    0.0    58   80.9     6    267.1    10.2    999.0   2.00  
  19   18:00    0.0    58   81.4     4    265.3     9.0    999.0   2.00  
  19   18:10    0.0    57   81.8     5    270.8     9.0    999.0   2.00  
  19   18:20    0.0    57   81.9     5    262.1     8.4    999.0   1.95  
  19   18:30    0.0    57   82.2     4    262.7     6.6    999.0   1.84  
  19   18:40    0.0    57   82.5     4    260.7     9.0    999.0   1.19  
  19   18:50    0.0    57   82.1     5    264.9     8.4    999.0   1.78  
  19   19:00    0.0    57   82.4     4    263.7     8.4    999.0   2.00  
  19   19:10    0.0    58   81.7     4    275.1    10.2    999.0   2.00  
  19   19:20    0.0    58   81.9     5    266.7    10.2    999.0   1.83  
  19   19:30    0.0    57   82.0     5    264.1    10.2    999.0   1.94  
  19   19:40    0.0    58   81.5     4    262.1     7.8    999.0   2.00  
  19   19:50    0.0    57   82.0     4    275.7     9.0    999.0   2.00  
  19   20:00    0.0    57   82.4     4    265.1     9.6    999.0   2.00  
  19   20:10    0.0    57   82.0     3    249.9     6.0    999.0   2.00  
  19   20:20    0.0    58   82.2     4    276.0     7.8    999.0   1.50  
  19   20:30    0.0    58   81.7     4    281.4    10.8    999.0   1.32  
  19   20:40    0.0    58   82.3     1    249.7     4.2    999.0   1.69  
  19   20:50    0.0    58   83.0     2    272.2     6.0    999.0   0.14  
  19   21:00    0.0    58   83.1     2    238.7     6.6    999.0   1.93  
  19   21:10    0.0    58   84.4     2    187.4     6.6    999.0   2.00  
  19   21:20    0.0    57   84.3     4    186.1    10.8    999.0   1.47  
  19   21:30    0.0    57   84.9     3    224.9     6.6    999.0   1.89  
  19   21:40    0.0    57   86.9     2    245.7     7.8    999.0   1.47  
  19   21:50    0.0    56   88.1     2    262.6     7.8    999.0   2.00  
  19   22:00    0.0    56   87.8     2    269.4     5.4    999.0   2.00  
  19   22:10    0.0    56   87.2     2    247.0     3.6    999.0   1.93  
  19   22:20    0.0    56   86.9     1    232.3     4.8    999.0   2.00  
  19   22:30    0.0    55   87.6     1    259.9     3.6    999.0   1.95  
  19   22:40    0.0    55   87.5     3    251.6     6.6    999.0   1.91  
  19   22:50    0.0    56   85.7     2    265.6     7.2    999.0   1.66  
  19   23:00    0.0    56   85.4     2    246.3     7.8    999.0   1.62  
  19   23:10    0.0    56   85.4     1    259.5     4.2    999.0   2.00  
  19   23:20    0.0    55   86.7     1    276.1     2.4    999.0   2.00  
  19   23:30    0.0    54   88.3     2    264.2     3.6    999.0   1.83  

Return to Avalon School graphs page.


Western Regional Climate Center,wrcc@dri.edu